Huvudsida
METAR-TAF:

METAR-TAF

Flygplatser :

Kish Island International Airport

Kish, Iran

latitud: 26-31-36N, longitud: 053-58-54E, höjd: 30 m

Aktuellt väderrapport

Denna rapport gjordes för 1 timme och 5 minuter sedan, klockan 13:00 UTC
Vind 16 kt från väst
Temperatur 35°C
Fuktighet 56%
Tryck 998 hPa
Sikt: 8000 m

METAR: OIBK 241300Z 28016KT 8000 NSC 35/25 Q0998

Tid: 18:35 (14:05 UTC)

Väderprognos

Denna rapport gjordes för 3 timmar och 5 minuter sedan, klockan 11:00 UTC
Prognos gäller från 24 kl. 12 UTC till 25 kl. 18 UTC
Vind 18 kt från nordväst
Sikt: 6000 m
Temporärt
från 24 kl. 12 UTC till 24 kl. 15 UTC
Vind 18 kt från väst i byarna ända upp till 24 kt
Sikt: 3000 m
sand
Blir
från 24 kl. 22 UTC till 24 kl. 24 UTC
Vind 8 kt från syd/sydost
Sikt: 4000 m
Blir
från 25 kl. 04 UTC till 25 kl. 06 UTC
Sikt: 7000 m

TAF: OIBK 241100Z 2412/2518 31018KT 6000 NSC TEMPO 2412/2415 28018G24KT 3000 SA BECMG 2422/2424 16008KT 4000 HZ/BR BECMG 2504/2506 7000 NSC

Aktuella väderrapporter och prognoser från 4000 flygplatser (METAR- och TAF-rapporter).

De tillgängliga stationerna syns som gula och röda prickar på kartan.

För musen över prickarna för att se namnen på stationerna.

Klicka sedan för att få väderrapporter och prognoser.

För att ändra kartan: Klicka på de gröna knapparna med ett svart kors på för att zooma in; den gröna knappen med ett streck på för att zooma ut; eller på de gröna pilarna för angränsande kartor.


METAR-TAF: